sensor_id;sensor_type;location;lat;lon;timestamp;P1;durP1;ratioP1;P2;durP2;ratioP2
71896;SDS011;59767;51.344;12.362;2023-02-11T00:02:09;46.47;;;21.38;;
71896;SDS011;59767;51.344;12.362;2023-02-11T00:05:14;47.35;;;22.20;;
71896;SDS011;59767;51.344;12.362;2023-02-11T00:08:18;45.63;;;21.67;;
71896;SDS011;59767;51.344;12.362;2023-02-11T00:11:22;43.45;;;20.90;;
71896;SDS011;59767;51.344;12.362;2023-02-11T00:14:34;44.88;;;21.27;;
71896;SDS011;59767;51.344;12.362;2023-02-11T00:17:38;45.33;;;21.15;;
71896;SDS011;59767;51.344;12.362;2023-02-11T00:20:42;44.53;;;21.65;;
71896;SDS011;59767;51.344;12.362;2023-02-11T00:23:46;44.75;;;20.75;;
71896;SDS011;59767;51.344;12.362;2023-02-11T00:26:51;46.78;;;21.88;;
71896;SDS011;59767;51.344;12.362;2023-02-11T00:29:55;42.90;;;20.80;;
71896;SDS011;59767;51.344;12.362;2023-02-11T00:32:59;40.35;;;20.52;;
71896;SDS011;59767;51.344;12.362;2023-02-11T00:36:04;43.78;;;21.13;;
71896;SDS011;59767;51.344;12.362;2023-02-11T00:39:14;44.58;;;21.30;;
71896;SDS011;59767;51.344;12.362;2023-02-11T00:42:17;46.75;;;21.30;;
71896;SDS011;59767;51.344;12.362;2023-02-11T00:45:22;44.28;;;21.38;;
71896;SDS011;59767;51.344;12.362;2023-02-11T00:48:26;42.22;;;20.02;;
71896;SDS011;59767;51.344;12.362;2023-02-11T00:51:30;47.75;;;21.95;;
71896;SDS011;59767;51.344;12.362;2023-02-11T00:54:34;48.70;;;22.00;;
71896;SDS011;59767;51.344;12.362;2023-02-11T00:57:38;47.65;;;22.38;;
71896;SDS011;59767;51.344;12.362;2023-02-11T01:00:43;44.75;;;21.95;;
71896;SDS011;59767;51.344;12.362;2023-02-11T01:03:47;45.45;;;21.85;;
71896;SDS011;59767;51.344;12.362;2023-02-11T01:06:51;45.33;;;21.50;;
71896;SDS011;59767;51.344;12.362;2023-02-11T01:09:56;41.65;;;20.67;;
71896;SDS011;59767;51.344;12.362;2023-02-11T01:13:00;47.28;;;21.40;;
71896;SDS011;59767;51.344;12.362;2023-02-11T01:16:07;42.28;;;20.52;;
71896;SDS011;59767;51.344;12.362;2023-02-11T01:19:13;41.47;;;19.73;;
71896;SDS011;59767;51.344;12.362;2023-02-11T01:22:17;43.13;;;21.20;;
71896;SDS011;59767;51.344;12.362;2023-02-11T01:25:22;43.33;;;21.15;;
71896;SDS011;59767;51.344;12.362;2023-02-11T01:28:27;43.95;;;20.92;;
71896;SDS011;59767;51.344;12.362;2023-02-11T01:31:33;42.20;;;21.02;;
71896;SDS011;59767;51.344;12.362;2023-02-11T01:34:37;37.90;;;20.50;;
71896;SDS011;59767;51.344;12.362;2023-02-11T01:37:41;41.45;;;21.00;;
71896;SDS011;59767;51.344;12.362;2023-02-11T01:40:56;42.22;;;20.23;;
71896;SDS011;59767;51.344;12.362;2023-02-11T01:44:23;40.72;;;19.95;;
71896;SDS011;59767;51.344;12.362;2023-02-11T01:47:36;42.13;;;19.90;;
71896;SDS011;59767;51.344;12.362;2023-02-11T01:50:40;40.33;;;19.88;;
71896;SDS011;59767;51.344;12.362;2023-02-11T01:53:45;41.70;;;20.02;;
71896;SDS011;59767;51.344;12.362;2023-02-11T01:57:12;42.13;;;20.88;;
71896;SDS011;59767;51.344;12.362;2023-02-11T02:00:26;43.50;;;20.42;;
71896;SDS011;59767;51.344;12.362;2023-02-11T02:03:36;41.60;;;19.17;;
71896;SDS011;59767;51.344;12.362;2023-02-11T02:06:47;39.00;;;20.42;;
71896;SDS011;59767;51.344;12.362;2023-02-11T02:09:59;42.10;;;20.20;;
71896;SDS011;59767;51.344;12.362;2023-02-11T02:13:08;41.40;;;21.05;;
71896;SDS011;59767;51.344;12.362;2023-02-11T02:16:13;41.95;;;20.77;;
71896;SDS011;59767;51.344;12.362;2023-02-11T02:22:43;39.17;;;19.70;;
71896;SDS011;59767;51.344;12.362;2023-02-11T02:25:59;43.15;;;20.42;;
71896;SDS011;59767;51.344;12.362;2023-02-11T02:36:36;40.67;;;20.48;;
71896;SDS011;59767;51.344;12.362;2023-02-11T02:39:47;39.38;;;19.25;;
71896;SDS011;59767;51.344;12.362;2023-02-11T02:42:53;39.67;;;20.30;;
71896;SDS011;59767;51.344;12.362;2023-02-11T02:46:11;41.55;;;20.08;;
71896;SDS011;59767;51.344;12.362;2023-02-11T02:49:27;41.65;;;20.40;;
71896;SDS011;59767;51.344;12.362;2023-02-11T02:56:02;40.53;;;20.50;;
71896;SDS011;59767;51.344;12.362;2023-02-11T02:59:18;44.95;;;21.50;;
71896;SDS011;59767;51.344;12.362;2023-02-11T03:02:47;42.05;;;20.27;;
71896;SDS011;59767;51.344;12.362;2023-02-11T03:09:42;44.22;;;21.25;;
71896;SDS011;59767;51.344;12.362;2023-02-11T03:12:57;38.42;;;20.10;;
71896;SDS011;59767;51.344;12.362;2023-02-11T03:16:06;44.00;;;21.85;;
71896;SDS011;59767;51.344;12.362;2023-02-11T03:19:20;39.30;;;20.77;;
71896;SDS011;59767;51.344;12.362;2023-02-11T03:22:29;40.45;;;21.48;;
71896;SDS011;59767;51.344;12.362;2023-02-11T03:25:40;41.50;;;20.85;;
71896;SDS011;59767;51.344;12.362;2023-02-11T03:32:11;44.72;;;21.77;;
71896;SDS011;59767;51.344;12.362;2023-02-11T03:35:23;40.75;;;21.02;;
71896;SDS011;59767;51.344;12.362;2023-02-11T03:38:46;43.53;;;21.70;;
71896;SDS011;59767;51.344;12.362;2023-02-11T03:41:54;44.78;;;22.27;;
71896;SDS011;59767;51.344;12.362;2023-02-11T03:45:02;47.97;;;23.15;;
71896;SDS011;59767;51.344;12.362;2023-02-11T03:48:44;42.25;;;22.00;;
71896;SDS011;59767;51.344;12.362;2023-02-11T03:51:42;44.33;;;22.40;;
71896;SDS011;59767;51.344;12.362;2023-02-11T03:54:47;41.92;;;22.67;;
71896;SDS011;59767;51.344;12.362;2023-02-11T03:57:56;44.75;;;22.73;;
71896;SDS011;59767;51.344;12.362;2023-02-11T04:01:00;44.28;;;21.50;;
71896;SDS011;59767;51.344;12.362;2023-02-11T04:04:05;46.10;;;21.33;;
71896;SDS011;59767;51.344;12.362;2023-02-11T04:07:10;43.40;;;22.00;;
71896;SDS011;59767;51.344;12.362;2023-02-11T04:10:15;42.80;;;22.60;;
71896;SDS011;59767;51.344;12.362;2023-02-11T04:13:21;43.92;;;22.10;;
71896;SDS011;59767;51.344;12.362;2023-02-11T04:16:25;45.25;;;22.63;;
71896;SDS011;59767;51.344;12.362;2023-02-11T04:19:29;45.03;;;22.83;;
71896;SDS011;59767;51.344;12.362;2023-02-11T04:22:33;44.13;;;21.45;;
71896;SDS011;59767;51.344;12.362;2023-02-11T04:25:38;46.30;;;22.48;;
71896;SDS011;59767;51.344;12.362;2023-02-11T04:28:42;42.22;;;21.55;;
71896;SDS011;59767;51.344;12.362;2023-02-11T04:31:46;49.30;;;21.92;;
71896;SDS011;59767;51.344;12.362;2023-02-11T04:34:50;42.10;;;21.35;;
71896;SDS011;59767;51.344;12.362;2023-02-11T04:37:55;45.47;;;21.83;;
71896;SDS011;59767;51.344;12.362;2023-02-11T04:40:59;47.25;;;21.77;;
71896;SDS011;59767;51.344;12.362;2023-02-11T04:44:03;43.33;;;21.13;;
71896;SDS011;59767;51.344;12.362;2023-02-11T04:47:08;47.55;;;21.70;;
71896;SDS011;59767;51.344;12.362;2023-02-11T04:50:12;43.15;;;20.80;;
71896;SDS011;59767;51.344;12.362;2023-02-11T04:53:16;44.58;;;22.08;;
71896;SDS011;59767;51.344;12.362;2023-02-11T04:56:20;42.35;;;21.50;;
71896;SDS011;59767;51.344;12.362;2023-02-11T04:59:24;42.20;;;21.25;;
71896;SDS011;59767;51.344;12.362;2023-02-11T05:02:28;45.22;;;21.40;;
71896;SDS011;59767;51.344;12.362;2023-02-11T05:05:33;44.50;;;21.40;;
71896;SDS011;59767;51.344;12.362;2023-02-11T05:08:37;43.05;;;22.23;;
71896;SDS011;59767;51.344;12.362;2023-02-11T05:11:41;43.28;;;22.17;;
71896;SDS011;59767;51.344;12.362;2023-02-11T05:14:46;43.92;;;21.92;;
71896;SDS011;59767;51.344;12.362;2023-02-11T05:17:50;44.13;;;22.48;;
71896;SDS011;59767;51.344;12.362;2023-02-11T05:20:54;46.85;;;22.58;;
71896;SDS011;59767;51.344;12.362;2023-02-11T05:23:58;44.58;;;22.45;;
71896;SDS011;59767;51.344;12.362;2023-02-11T05:27:03;43.25;;;22.00;;
71896;SDS011;59767;51.344;12.362;2023-02-11T05:30:07;42.88;;;22.17;;
71896;SDS011;59767;51.344;12.362;2023-02-11T05:33:12;47.03;;;22.45;;
71896;SDS011;59767;51.344;12.362;2023-02-11T05:36:16;48.22;;;22.98;;
71896;SDS011;59767;51.344;12.362;2023-02-11T05:39:20;44.83;;;22.45;;
71896;SDS011;59767;51.344;12.362;2023-02-11T05:42:24;48.70;;;22.98;;
71896;SDS011;59767;51.344;12.362;2023-02-11T05:45:29;46.00;;;24.25;;
71896;SDS011;59767;51.344;12.362;2023-02-11T05:48:34;48.22;;;23.13;;
71896;SDS011;59767;51.344;12.362;2023-02-11T05:51:38;48.10;;;23.10;;
71896;SDS011;59767;51.344;12.362;2023-02-11T05:54:42;54.90;;;23.73;;
71896;SDS011;59767;51.344;12.362;2023-02-11T05:57:46;50.42;;;24.00;;
71896;SDS011;59767;51.344;12.362;2023-02-11T06:00:50;48.75;;;24.35;;
71896;SDS011;59767;51.344;12.362;2023-02-11T06:03:54;48.35;;;23.80;;
71896;SDS011;59767;51.344;12.362;2023-02-11T06:06:58;48.00;;;24.02;;
71896;SDS011;59767;51.344;12.362;2023-02-11T06:10:03;48.95;;;23.38;;
71896;SDS011;59767;51.344;12.362;2023-02-11T06:13:07;49.67;;;24.15;;
71896;SDS011;59767;51.344;12.362;2023-02-11T06:16:11;51.97;;;25.63;;
71896;SDS011;59767;51.344;12.362;2023-02-11T06:19:16;51.65;;;24.65;;
71896;SDS011;59767;51.344;12.362;2023-02-11T06:22:19;51.47;;;25.83;;
71896;SDS011;59767;51.344;12.362;2023-02-11T06:25:24;52.55;;;25.10;;
71896;SDS011;59767;51.344;12.362;2023-02-11T06:28:28;50.88;;;25.23;;
71896;SDS011;59767;51.344;12.362;2023-02-11T06:31:35;54.75;;;25.73;;
71896;SDS011;59767;51.344;12.362;2023-02-11T06:34:40;52.30;;;26.00;;
71896;SDS011;59767;51.344;12.362;2023-02-11T06:37:44;54.03;;;25.83;;
71896;SDS011;59767;51.344;12.362;2023-02-11T06:40:49;49.03;;;25.15;;
71896;SDS011;59767;51.344;12.362;2023-02-11T06:43:53;54.33;;;25.77;;
71896;SDS011;59767;51.344;12.362;2023-02-11T06:46:57;51.92;;;25.38;;
71896;SDS011;59767;51.344;12.362;2023-02-11T06:50:01;50.70;;;25.70;;
71896;SDS011;59767;51.344;12.362;2023-02-11T06:53:06;52.83;;;26.25;;
71896;SDS011;59767;51.344;12.362;2023-02-11T06:56:12;48.45;;;25.33;;
71896;SDS011;59767;51.344;12.362;2023-02-11T06:59:20;54.75;;;25.73;;
71896;SDS011;59767;51.344;12.362;2023-02-11T07:02:25;51.90;;;25.50;;
71896;SDS011;59767;51.344;12.362;2023-02-11T07:05:29;51.45;;;25.60;;
71896;SDS011;59767;51.344;12.362;2023-02-11T07:08:34;53.80;;;26.88;;
71896;SDS011;59767;51.344;12.362;2023-02-11T07:11:39;52.95;;;26.17;;
71896;SDS011;59767;51.344;12.362;2023-02-11T07:14:44;53.97;;;24.92;;
71896;SDS011;59767;51.344;12.362;2023-02-11T07:17:48;52.22;;;25.45;;
71896;SDS011;59767;51.344;12.362;2023-02-11T07:20:52;57.17;;;25.88;;
71896;SDS011;59767;51.344;12.362;2023-02-11T07:23:56;55.53;;;26.27;;
71896;SDS011;59767;51.344;12.362;2023-02-11T07:27:00;50.53;;;24.83;;
71896;SDS011;59767;51.344;12.362;2023-02-11T07:30:05;54.35;;;25.77;;
71896;SDS011;59767;51.344;12.362;2023-02-11T07:33:10;52.63;;;25.15;;
71896;SDS011;59767;51.344;12.362;2023-02-11T07:36:14;54.03;;;25.80;;
71896;SDS011;59767;51.344;12.362;2023-02-11T07:39:19;52.05;;;25.13;;
71896;SDS011;59767;51.344;12.362;2023-02-11T07:42:24;50.55;;;25.98;;
71896;SDS011;59767;51.344;12.362;2023-02-11T07:45:28;55.22;;;26.52;;
71896;SDS011;59767;51.344;12.362;2023-02-11T07:48:33;49.28;;;26.08;;
71896;SDS011;59767;51.344;12.362;2023-02-11T07:51:37;52.58;;;26.50;;
71896;SDS011;59767;51.344;12.362;2023-02-11T07:54:42;50.55;;;25.38;;
71896;SDS011;59767;51.344;12.362;2023-02-11T07:57:45;52.10;;;25.27;;
71896;SDS011;59767;51.344;12.362;2023-02-11T08:00:49;49.65;;;25.58;;
71896;SDS011;59767;51.344;12.362;2023-02-11T08:03:55;53.65;;;26.88;;
71896;SDS011;59767;51.344;12.362;2023-02-11T08:06:59;52.55;;;24.38;;
71896;SDS011;59767;51.344;12.362;2023-02-11T08:10:03;51.17;;;24.95;;
71896;SDS011;59767;51.344;12.362;2023-02-11T08:13:08;49.05;;;26.27;;
71896;SDS011;59767;51.344;12.362;2023-02-11T08:16:25;54.00;;;26.55;;
71896;SDS011;59767;51.344;12.362;2023-02-11T08:19:33;49.90;;;26.15;;
71896;SDS011;59767;51.344;12.362;2023-02-11T08:22:38;49.80;;;26.27;;
71896;SDS011;59767;51.344;12.362;2023-02-11T08:25:42;51.63;;;26.15;;
71896;SDS011;59767;51.344;12.362;2023-02-11T08:28:47;48.17;;;25.70;;
71896;SDS011;59767;51.344;12.362;2023-02-11T08:31:52;52.70;;;25.27;;
71896;SDS011;59767;51.344;12.362;2023-02-11T08:34:56;51.92;;;25.55;;
71896;SDS011;59767;51.344;12.362;2023-02-11T08:38:00;49.65;;;25.08;;
71896;SDS011;59767;51.344;12.362;2023-02-11T08:41:04;51.05;;;25.42;;
71896;SDS011;59767;51.344;12.362;2023-02-11T08:44:09;51.90;;;25.58;;
71896;SDS011;59767;51.344;12.362;2023-02-11T08:47:13;45.20;;;24.42;;
71896;SDS011;59767;51.344;12.362;2023-02-11T08:50:17;46.15;;;24.88;;
71896;SDS011;59767;51.344;12.362;2023-02-11T08:53:21;53.13;;;25.25;;
71896;SDS011;59767;51.344;12.362;2023-02-11T08:56:26;47.40;;;25.17;;
71896;SDS011;59767;51.344;12.362;2023-02-11T08:59:31;49.83;;;26.35;;
71896;SDS011;59767;51.344;12.362;2023-02-11T09:02:35;49.00;;;25.20;;
71896;SDS011;59767;51.344;12.362;2023-02-11T09:05:40;53.50;;;26.70;;
71896;SDS011;59767;51.344;12.362;2023-02-11T09:08:49;44.95;;;24.40;;
71896;SDS011;59767;51.344;12.362;2023-02-11T09:11:55;50.88;;;23.95;;
71896;SDS011;59767;51.344;12.362;2023-02-11T09:15:00;45.15;;;24.63;;
71896;SDS011;59767;51.344;12.362;2023-02-11T09:18:04;49.53;;;25.88;;
71896;SDS011;59767;51.344;12.362;2023-02-11T09:21:08;50.70;;;26.40;;
71896;SDS011;59767;51.344;12.362;2023-02-11T09:24:13;49.97;;;25.80;;
71896;SDS011;59767;51.344;12.362;2023-02-11T09:27:17;49.20;;;25.70;;
71896;SDS011;59767;51.344;12.362;2023-02-11T09:30:21;46.53;;;25.33;;
71896;SDS011;59767;51.344;12.362;2023-02-11T09:33:25;49.55;;;25.08;;
71896;SDS011;59767;51.344;12.362;2023-02-11T09:36:31;48.03;;;24.38;;
71896;SDS011;59767;51.344;12.362;2023-02-11T09:39:38;50.55;;;25.83;;
71896;SDS011;59767;51.344;12.362;2023-02-11T09:42:44;48.30;;;25.42;;
71896;SDS011;59767;51.344;12.362;2023-02-11T09:45:52;49.55;;;25.75;;
71896;SDS011;59767;51.344;12.362;2023-02-11T09:48:58;49.88;;;25.98;;
71896;SDS011;59767;51.344;12.362;2023-02-11T09:55:38;43.90;;;23.60;;
71896;SDS011;59767;51.344;12.362;2023-02-11T09:58:47;48.00;;;25.63;;
71896;SDS011;59767;51.344;12.362;2023-02-11T10:01:54;49.33;;;24.55;;
71896;SDS011;59767;51.344;12.362;2023-02-11T10:12:09;44.38;;;24.55;;
71896;SDS011;59767;51.344;12.362;2023-02-11T10:25:05;41.95;;;22.98;;
71896;SDS011;59767;51.344;12.362;2023-02-11T10:31:40;45.75;;;22.98;;
71896;SDS011;59767;51.344;12.362;2023-02-11T10:34:47;47.95;;;23.70;;
71896;SDS011;59767;51.344;12.362;2023-02-11T10:37:52;42.53;;;23.13;;
71896;SDS011;59767;51.344;12.362;2023-02-11T10:40:56;42.67;;;23.38;;
71896;SDS011;59767;51.344;12.362;2023-02-11T10:44:00;44.83;;;24.08;;
71896;SDS011;59767;51.344;12.362;2023-02-11T10:47:26;43.90;;;23.15;;
71896;SDS011;59767;51.344;12.362;2023-02-11T10:50:32;41.83;;;22.70;;
71896;SDS011;59767;51.344;12.362;2023-02-11T10:53:38;43.90;;;23.90;;
71896;SDS011;59767;51.344;12.362;2023-02-11T10:56:46;43.28;;;24.25;;
71896;SDS011;59767;51.344;12.362;2023-02-11T10:59:56;41.17;;;23.25;;
71896;SDS011;59767;51.344;12.362;2023-02-11T11:03:04;42.83;;;22.52;;
71896;SDS011;59767;51.344;12.362;2023-02-11T11:06:32;43.03;;;22.67;;
71896;SDS011;59767;51.344;12.362;2023-02-11T11:09:45;43.33;;;23.60;;
71896;SDS011;59767;51.344;12.362;2023-02-11T11:12:49;41.27;;;23.17;;
71896;SDS011;59767;51.344;12.362;2023-02-11T11:16:08;43.13;;;23.02;;
71896;SDS011;59767;51.344;12.362;2023-02-11T11:19:20;45.42;;;22.65;;
71896;SDS011;59767;51.344;12.362;2023-02-11T11:22:25;39.22;;;22.25;;
71896;SDS011;59767;51.344;12.362;2023-02-11T11:25:29;43.75;;;23.23;;
71896;SDS011;59767;51.344;12.362;2023-02-11T11:28:40;44.75;;;23.00;;
71896;SDS011;59767;51.344;12.362;2023-02-11T11:32:12;40.25;;;22.83;;
71896;SDS011;59767;51.344;12.362;2023-02-11T11:35:27;43.88;;;22.83;;
71896;SDS011;59767;51.344;12.362;2023-02-11T11:38:34;42.10;;;21.50;;
71896;SDS011;59767;51.344;12.362;2023-02-11T11:41:48;41.75;;;22.65;;
71896;SDS011;59767;51.344;12.362;2023-02-11T11:44:56;43.00;;;23.30;;
71896;SDS011;59767;51.344;12.362;2023-02-11T11:51:49;40.97;;;22.52;;
71896;SDS011;59767;51.344;12.362;2023-02-11T11:55:22;41.03;;;22.00;;
71896;SDS011;59767;51.344;12.362;2023-02-11T11:58:29;47.90;;;24.38;;
71896;SDS011;59767;51.344;12.362;2023-02-11T12:05:08;42.58;;;22.67;;
71896;SDS011;59767;51.344;12.362;2023-02-11T12:08:25;39.75;;;22.98;;
71896;SDS011;59767;51.344;12.362;2023-02-11T12:22:11;36.55;;;21.13;;
71896;SDS011;59767;51.344;12.362;2023-02-11T12:29:01;41.22;;;21.90;;
71896;SDS011;59767;51.344;12.362;2023-02-11T12:32:39;41.83;;;22.77;;
71896;SDS011;59767;51.344;12.362;2023-02-11T12:49:36;40.40;;;22.00;;
71896;SDS011;59767;51.344;12.362;2023-02-11T13:02:59;38.40;;;22.10;;
71896;SDS011;59767;51.344;12.362;2023-02-11T13:06:10;41.38;;;22.48;;
71896;SDS011;59767;51.344;12.362;2023-02-11T13:09:18;39.60;;;21.25;;
71896;SDS011;59767;51.344;12.362;2023-02-11T13:12:29;39.58;;;22.45;;
71896;SDS011;59767;51.344;12.362;2023-02-11T13:15:57;39.45;;;21.75;;
71896;SDS011;59767;51.344;12.362;2023-02-11T13:22:19;38.22;;;21.15;;
71896;SDS011;59767;51.344;12.362;2023-02-11T13:25:33;39.55;;;21.30;;
71896;SDS011;59767;51.344;12.362;2023-02-11T13:31:54;40.20;;;22.10;;
71896;SDS011;59767;51.344;12.362;2023-02-11T13:35:01;40.28;;;21.13;;
71896;SDS011;59767;51.344;12.362;2023-02-11T13:38:11;37.58;;;21.55;;
71896;SDS011;59767;51.344;12.362;2023-02-11T13:44:37;41.92;;;21.75;;
71896;SDS011;59767;51.344;12.362;2023-02-11T13:47:41;43.42;;;22.30;;
71896;SDS011;59767;51.344;12.362;2023-02-11T13:50:46;39.20;;;21.58;;
71896;SDS011;59767;51.344;12.362;2023-02-11T13:53:53;38.15;;;21.42;;
71896;SDS011;59767;51.344;12.362;2023-02-11T14:03:38;39.72;;;21.33;;
71896;SDS011;59767;51.344;12.362;2023-02-11T14:07:23;37.60;;;21.13;;
71896;SDS011;59767;51.344;12.362;2023-02-11T14:10:54;41.58;;;21.65;;
71896;SDS011;59767;51.344;12.362;2023-02-11T14:20:31;48.28;;;22.65;;
71896;SDS011;59767;51.344;12.362;2023-02-11T14:23:40;37.83;;;20.45;;
71896;SDS011;59767;51.344;12.362;2023-02-11T14:37:12;37.78;;;21.42;;
71896;SDS011;59767;51.344;12.362;2023-02-11T14:40:26;41.15;;;21.20;;
71896;SDS011;59767;51.344;12.362;2023-02-11T14:43:43;38.53;;;20.73;;
71896;SDS011;59767;51.344;12.362;2023-02-11T14:46:50;41.17;;;22.25;;
71896;SDS011;59767;51.344;12.362;2023-02-11T14:49:56;39.92;;;20.65;;
71896;SDS011;59767;51.344;12.362;2023-02-11T14:53:00;36.72;;;20.63;;
71896;SDS011;59767;51.344;12.362;2023-02-11T14:56:15;36.53;;;20.95;;
71896;SDS011;59767;51.344;12.362;2023-02-11T14:59:23;40.40;;;21.63;;
71896;SDS011;59767;51.344;12.362;2023-02-11T15:02:28;37.40;;;21.70;;
71896;SDS011;59767;51.344;12.362;2023-02-11T15:05:38;40.13;;;21.00;;
71896;SDS011;59767;51.344;12.362;2023-02-11T15:08:42;37.13;;;20.65;;
71896;SDS011;59767;51.344;12.362;2023-02-11T15:11:51;40.90;;;20.50;;
71896;SDS011;59767;51.344;12.362;2023-02-11T15:14:56;38.67;;;20.52;;
71896;SDS011;59767;51.344;12.362;2023-02-11T15:18:02;38.10;;;20.75;;
71896;SDS011;59767;51.344;12.362;2023-02-11T15:21:07;36.47;;;19.75;;
71896;SDS011;59767;51.344;12.362;2023-02-11T15:24:23;37.33;;;21.20;;
71896;SDS011;59767;51.344;12.362;2023-02-11T15:27:36;38.97;;;19.92;;
71896;SDS011;59767;51.344;12.362;2023-02-11T15:30:44;35.60;;;19.75;;
71896;SDS011;59767;51.344;12.362;2023-02-11T15:33:49;37.25;;;20.13;;
71896;SDS011;59767;51.344;12.362;2023-02-11T15:36:53;35.13;;;19.88;;
71896;SDS011;59767;51.344;12.362;2023-02-11T15:40:08;36.35;;;19.55;;
71896;SDS011;59767;51.344;12.362;2023-02-11T15:43:14;34.10;;;19.42;;
71896;SDS011;59767;51.344;12.362;2023-02-11T15:46:19;37.50;;;19.48;;
71896;SDS011;59767;51.344;12.362;2023-02-11T15:49:26;34.28;;;19.02;;
71896;SDS011;59767;51.344;12.362;2023-02-11T15:52:30;33.30;;;19.33;;
71896;SDS011;59767;51.344;12.362;2023-02-11T15:55:36;36.88;;;18.95;;
71896;SDS011;59767;51.344;12.362;2023-02-11T15:58:44;36.75;;;18.65;;
71896;SDS011;59767;51.344;12.362;2023-02-11T16:01:50;33.17;;;17.95;;
71896;SDS011;59767;51.344;12.362;2023-02-11T16:05:07;33.92;;;17.33;;
71896;SDS011;59767;51.344;12.362;2023-02-11T16:08:27;32.08;;;16.98;;
71896;SDS011;59767;51.344;12.362;2023-02-11T16:11:34;33.90;;;17.55;;
71896;SDS011;59767;51.344;12.362;2023-02-11T16:14:41;31.20;;;16.58;;
71896;SDS011;59767;51.344;12.362;2023-02-11T16:17:45;33.38;;;16.40;;
71896;SDS011;59767;51.344;12.362;2023-02-11T16:20:49;33.13;;;16.52;;
71896;SDS011;59767;51.344;12.362;2023-02-11T16:23:55;31.98;;;16.80;;
71896;SDS011;59767;51.344;12.362;2023-02-11T16:27:22;29.55;;;15.98;;
71896;SDS011;59767;51.344;12.362;2023-02-11T16:30:28;30.33;;;15.95;;
71896;SDS011;59767;51.344;12.362;2023-02-11T16:33:36;31.95;;;15.88;;
71896;SDS011;59767;51.344;12.362;2023-02-11T16:36:40;33.00;;;16.30;;
71896;SDS011;59767;51.344;12.362;2023-02-11T16:39:45;31.65;;;17.02;;
71896;SDS011;59767;51.344;12.362;2023-02-11T16:42:49;34.38;;;16.00;;
71896;SDS011;59767;51.344;12.362;2023-02-11T16:45:56;32.97;;;16.50;;
71896;SDS011;59767;51.344;12.362;2023-02-11T16:49:10;32.88;;;16.83;;
71896;SDS011;59767;51.344;12.362;2023-02-11T16:52:20;31.52;;;16.70;;
71896;SDS011;59767;51.344;12.362;2023-02-11T16:55:24;31.10;;;16.25;;
71896;SDS011;59767;51.344;12.362;2023-02-11T16:58:29;31.42;;;16.65;;
71896;SDS011;59767;51.344;12.362;2023-02-11T17:01:33;28.65;;;16.33;;
71896;SDS011;59767;51.344;12.362;2023-02-11T17:04:39;32.92;;;16.50;;
71896;SDS011;59767;51.344;12.362;2023-02-11T17:07:44;29.23;;;16.40;;
71896;SDS011;59767;51.344;12.362;2023-02-11T17:10:49;28.85;;;15.93;;
71896;SDS011;59767;51.344;12.362;2023-02-11T17:13:54;32.03;;;16.55;;
71896;SDS011;59767;51.344;12.362;2023-02-11T17:16:58;34.40;;;16.30;;
71896;SDS011;59767;51.344;12.362;2023-02-11T17:20:03;30.85;;;16.23;;
71896;SDS011;59767;51.344;12.362;2023-02-11T17:23:09;31.95;;;15.63;;
71896;SDS011;59767;51.344;12.362;2023-02-11T17:26:13;33.72;;;16.67;;
71896;SDS011;59767;51.344;12.362;2023-02-11T17:29:18;30.00;;;16.25;;
71896;SDS011;59767;51.344;12.362;2023-02-11T17:32:24;30.98;;;16.75;;
71896;SDS011;59767;51.344;12.362;2023-02-11T17:35:28;33.08;;;16.80;;
71896;SDS011;59767;51.344;12.362;2023-02-11T17:38:33;33.05;;;18.00;;
71896;SDS011;59767;51.344;12.362;2023-02-11T17:41:38;30.17;;;17.75;;
71896;SDS011;59767;51.344;12.362;2023-02-11T17:44:43;37.22;;;19.02;;
71896;SDS011;59767;51.344;12.362;2023-02-11T17:47:48;39.03;;;20.00;;
71896;SDS011;59767;51.344;12.362;2023-02-11T17:50:52;43.15;;;22.13;;
71896;SDS011;59767;51.344;12.362;2023-02-11T17:53:58;44.03;;;22.23;;
71896;SDS011;59767;51.344;12.362;2023-02-11T17:57:04;43.72;;;21.95;;
71896;SDS011;59767;51.344;12.362;2023-02-11T18:00:08;42.03;;;23.02;;
71896;SDS011;59767;51.344;12.362;2023-02-11T18:03:13;47.30;;;22.95;;
71896;SDS011;59767;51.344;12.362;2023-02-11T18:06:17;42.67;;;22.75;;
71896;SDS011;59767;51.344;12.362;2023-02-11T18:09:22;43.92;;;23.33;;
71896;SDS011;59767;51.344;12.362;2023-02-11T18:12:28;51.80;;;24.67;;
71896;SDS011;59767;51.344;12.362;2023-02-11T18:15:32;45.25;;;24.67;;
71896;SDS011;59767;51.344;12.362;2023-02-11T18:18:36;44.72;;;23.98;;
71896;SDS011;59767;51.344;12.362;2023-02-11T18:21:40;47.38;;;24.52;;
71896;SDS011;59767;51.344;12.362;2023-02-11T18:24:45;47.38;;;25.35;;
71896;SDS011;59767;51.344;12.362;2023-02-11T18:27:54;48.45;;;25.90;;
71896;SDS011;59767;51.344;12.362;2023-02-11T18:30:59;50.78;;;26.70;;
71896;SDS011;59767;51.344;12.362;2023-02-11T18:34:04;53.40;;;26.80;;
71896;SDS011;59767;51.344;12.362;2023-02-11T18:37:10;62.00;;;29.48;;
71896;SDS011;59767;51.344;12.362;2023-02-11T18:40:15;57.53;;;28.65;;
71896;SDS011;59767;51.344;12.362;2023-02-11T18:43:20;57.55;;;28.23;;
71896;SDS011;59767;51.344;12.362;2023-02-11T18:46:24;60.88;;;29.35;;
71896;SDS011;59767;51.344;12.362;2023-02-11T18:49:28;58.60;;;30.67;;
71896;SDS011;59767;51.344;12.362;2023-02-11T18:52:33;55.70;;;29.52;;
71896;SDS011;59767;51.344;12.362;2023-02-11T18:55:41;61.72;;;30.42;;
71896;SDS011;59767;51.344;12.362;2023-02-11T18:58:47;61.88;;;31.88;;
71896;SDS011;59767;51.344;12.362;2023-02-11T19:01:51;64.40;;;31.67;;
71896;SDS011;59767;51.344;12.362;2023-02-11T19:04:56;59.63;;;31.45;;
71896;SDS011;59767;51.344;12.362;2023-02-11T19:08:00;59.55;;;30.98;;
71896;SDS011;59767;51.344;12.362;2023-02-11T19:11:04;56.00;;;30.05;;
71896;SDS011;59767;51.344;12.362;2023-02-11T19:14:08;61.95;;;30.00;;
71896;SDS011;59767;51.344;12.362;2023-02-11T19:17:13;60.92;;;30.35;;
71896;SDS011;59767;51.344;12.362;2023-02-11T19:20:17;59.40;;;31.63;;
71896;SDS011;59767;51.344;12.362;2023-02-11T19:23:21;56.75;;;30.42;;
71896;SDS011;59767;51.344;12.362;2023-02-11T19:26:26;57.97;;;31.92;;
71896;SDS011;59767;51.344;12.362;2023-02-11T19:29:31;61.13;;;30.45;;
71896;SDS011;59767;51.344;12.362;2023-02-11T19:32:38;58.92;;;31.55;;
71896;SDS011;59767;51.344;12.362;2023-02-11T19:35:42;61.20;;;31.02;;
71896;SDS011;59767;51.344;12.362;2023-02-11T19:38:46;62.47;;;31.20;;
71896;SDS011;59767;51.344;12.362;2023-02-11T19:41:51;58.97;;;30.58;;
71896;SDS011;59767;51.344;12.362;2023-02-11T19:44:55;58.80;;;30.80;;
71896;SDS011;59767;51.344;12.362;2023-02-11T19:47:59;67.53;;;32.50;;
71896;SDS011;59767;51.344;12.362;2023-02-11T19:51:07;62.55;;;31.67;;
71896;SDS011;59767;51.344;12.362;2023-02-11T19:54:16;61.63;;;32.40;;
71896;SDS011;59767;51.344;12.362;2023-02-11T19:57:20;62.03;;;31.52;;
71896;SDS011;59767;51.344;12.362;2023-02-11T20:00:25;64.40;;;31.88;;
71896;SDS011;59767;51.344;12.362;2023-02-11T20:03:29;67.32;;;32.63;;